Briefing drone pour Loriol-sur-drome

Rechercher une autre localisation

Conditions de vol :


Nous sommes le : Mercredi 19 janvier 2022
Il est 04:40 UTC (05:40 LT)

Lever de soleil : 06:45 UTC (07:45 LT)
Coucher de soleil : 16:57 UTC (17:57 LT)

Météo

L'essentiel des conditions de vol

VIGILANCE MÉTÉO FRANCE - Drôme (26)
Pas de vigilances particulieres
CARTE TEMSI
CARTES DES FRONTS
METAR de LFLU
LFLU 181800Z AUTO 09003KT 6000 NSC M01/M02 Q1032

Date d'émission: 18/01/2022
Heure d'émission: 18:00 UTC
Vent: 090° pour 3 KT (6 km/h)
Visibilité horizontale: 6000 m
Plafond : Pas de nuages significatifs (NSC)
Température: -1 °C
Point de rosée: -2 °C
Humidité: 93%
Pression (QNH): 1032 hPa
Prévision 24h pour Valence (13 km)
Vent : 22° pour 4 KT (14 km/h)
Temperature Maxi: 3 °C
Temperature Min: 3 °C
Humidité : 88%
Condition : Couvert



Warning: count(): Parameter must be an array or an object that implements Countable in /homepages/6/d509196549/htdocs/droneoxygene/briefing.php on line 743
WEBCAM POUR LORIOL-SUR-DROME

Réglementation

Voler en sécurité

CARTES AERONAUTIQUE 1/500.000
CARTES VAC (LFLU)
SUP AIP




Chargement des AIP...
NOTAM (LORIOL-SUR-DROME + Terrain à proximité / FIR )




Chargement des NOTAMS...
CONTACT PREFECTURE 26
Drôme (26) : ddt-satem@drome.gouv.fr


Avertissement : Les données mises à disposition sont indicatives. Oxygène Drone ne pourra être tenu responsable de dégâts causés aux biens et aux personnes.